createdAt,value
2023-10-25T00:01:50.393Z,2.93
2023-10-25T00:04:17.749Z,1.77
2023-10-25T00:06:45.064Z,2.60
2023-10-25T00:09:12.266Z,2.00
2023-10-25T00:11:39.392Z,1.80
2023-10-25T00:14:06.615Z,2.53
2023-10-25T00:16:33.796Z,2.77
2023-10-25T00:19:01.003Z,2.40
2023-10-25T00:21:28.160Z,1.50
2023-10-25T00:23:55.359Z,2.00
2023-10-25T00:26:22.742Z,1.53
2023-10-25T00:28:49.873Z,2.37
2023-10-25T00:31:17.109Z,2.63
2023-10-25T00:33:44.406Z,3.73
2023-10-25T00:36:11.626Z,2.67
2023-10-25T00:38:38.766Z,2.33
2023-10-25T00:41:05.947Z,2.87
2023-10-25T00:43:33.132Z,1.80
2023-10-25T00:46:00.530Z,2.30
2023-10-25T00:48:28.484Z,1.87
2023-10-25T00:50:55.939Z,2.13
2023-10-25T00:53:25.072Z,1.90
2023-10-25T00:55:55.902Z,1.30
2023-10-25T00:58:24.708Z,1.63
2023-10-25T01:00:53.298Z,1.83
2023-10-25T01:03:20.878Z,1.50
2023-10-25T01:05:48.313Z,1.43
2023-10-25T01:08:18.902Z,2.27
2023-10-25T01:10:46.238Z,2.03
2023-10-25T01:13:13.435Z,1.43
2023-10-25T01:15:40.740Z,2.13
2023-10-25T01:18:08.038Z,1.73
2023-10-25T01:20:35.266Z,2.70
2023-10-25T01:23:02.473Z,2.30
2023-10-25T01:25:29.659Z,1.97
2023-10-25T01:27:57.194Z,1.40
2023-10-25T01:30:24.408Z,1.90
2023-10-25T01:32:51.618Z,0.80
2023-10-25T01:35:18.924Z,1.97
2023-10-25T01:37:46.169Z,0.90
2023-10-25T01:40:13.513Z,1.93
2023-10-25T01:42:40.773Z,1.37
2023-10-25T01:45:08.087Z,1.40
2023-10-25T01:47:35.312Z,2.20
2023-10-25T01:50:02.538Z,1.33
2023-10-25T01:52:29.688Z,1.80
2023-10-25T01:54:56.908Z,4.23
2023-10-25T01:57:24.079Z,2.20
2023-10-25T01:59:51.241Z,1.60
2023-10-25T02:02:18.605Z,2.13
2023-10-25T02:04:45.876Z,4.53
2023-10-25T02:07:13.139Z,2.23
2023-10-25T02:09:40.530Z,1.47
2023-10-25T02:12:07.986Z,2.60
2023-10-25T02:14:35.291Z,2.37
2023-10-25T02:17:02.451Z,1.50
2023-10-25T02:19:29.610Z,1.60
2023-10-25T02:21:56.784Z,2.07
2023-10-25T02:24:23.993Z,1.50
2023-10-25T02:26:52.214Z,5.20
2023-10-25T02:29:19.404Z,1.47
2023-10-25T02:31:46.603Z,2.37
2023-10-25T02:34:13.806Z,1.50
2023-10-25T02:36:41.016Z,1.80
2023-10-25T02:39:08.215Z,1.80
2023-10-25T02:41:35.378Z,2.50
2023-10-25T02:44:02.568Z,1.77
2023-10-25T02:46:29.745Z,2.30
2023-10-25T02:48:57.141Z,2.90
2023-10-25T02:51:24.332Z,2.83
2023-10-25T02:53:54.048Z,1.23
2023-10-25T02:56:21.311Z,1.90
2023-10-25T02:58:48.505Z,2.40
2023-10-25T03:01:22.686Z,1.93
2023-10-25T03:03:50.356Z,2.03
2023-10-25T03:06:17.906Z,1.67
2023-10-25T03:08:45.225Z,2.60
2023-10-25T03:11:12.359Z,1.97
2023-10-25T03:13:39.714Z,1.73
2023-10-25T03:16:07.052Z,2.73
2023-10-25T03:18:34.615Z,2.00
2023-10-25T03:21:03.336Z,3.93
2023-10-25T03:23:33.877Z,1.70
2023-10-25T03:26:07.381Z,3.20
2023-10-25T03:28:36.777Z,2.17
2023-10-25T03:31:09.246Z,1.80
2023-10-25T03:33:36.638Z,1.67
2023-10-25T03:36:03.931Z,4.00
2023-10-25T03:38:31.102Z,1.33
2023-10-25T03:41:08.535Z,2.60
2023-10-25T03:43:36.604Z,1.87
2023-10-25T03:46:07.386Z,1.93
2023-10-25T03:48:35.207Z,2.60
2023-10-25T03:51:06.031Z,1.70
2023-10-25T03:53:36.632Z,3.40
2023-10-25T03:56:04.018Z,3.20
2023-10-25T03:58:31.392Z,2.20
2023-10-25T04:00:59.511Z,1.97
2023-10-25T04:03:26.769Z,2.60
2023-10-25T04:05:54.160Z,2.47
2023-10-25T04:08:21.426Z,4.63
2023-10-25T04:10:52.153Z,4.17
2023-10-25T04:13:19.926Z,1.80
2023-10-25T04:15:56.369Z,1.80
2023-10-25T04:18:24.658Z,1.43
2023-10-25T04:20:52.487Z,1.87
2023-10-25T04:23:19.813Z,2.33
2023-10-25T04:25:47.008Z,1.83
2023-10-25T04:28:15.195Z,3.17
2023-10-25T04:30:42.714Z,2.00
2023-10-25T04:33:09.989Z,3.20
2023-10-25T04:35:37.224Z,3.37
2023-10-25T04:38:04.502Z,3.03
2023-10-25T04:40:33.130Z,1.90
2023-10-25T04:43:00.362Z,3.43
2023-10-25T04:45:27.681Z,3.00
2023-10-25T04:47:54.853Z,2.40
2023-10-25T04:50:22.863Z,3.60
2023-10-25T04:52:50.568Z,2.27
2023-10-25T04:55:17.843Z,2.40
2023-10-25T04:57:45.167Z,3.07
2023-10-25T05:00:13.306Z,2.87
2023-10-25T05:02:40.947Z,2.97
2023-10-25T05:05:09.107Z,2.17
2023-10-25T05:07:40.296Z,2.80
2023-10-25T05:10:08.546Z,2.87
2023-10-25T05:12:40.521Z,2.60
2023-10-25T05:15:08.425Z,3.43
2023-10-25T05:17:35.815Z,2.30
2023-10-25T05:20:06.424Z,2.77
2023-10-25T05:22:40.744Z,2.33
2023-10-25T05:25:09.052Z,3.90
2023-10-25T05:27:36.783Z,2.90
2023-10-25T05:30:04.984Z,3.93
2023-10-25T05:32:36.809Z,3.23
2023-10-25T05:35:04.932Z,4.23
2023-10-25T05:37:32.721Z,4.37
2023-10-25T05:40:00.048Z,3.33
2023-10-25T05:42:28.501Z,3.77
2023-10-25T05:44:56.717Z,3.47
2023-10-25T05:47:24.693Z,3.03
2023-10-25T05:49:52.070Z,2.67
2023-10-25T05:52:19.711Z,3.50
2023-10-25T05:54:47.154Z,2.70
2023-10-25T05:57:14.772Z,3.77
2023-10-25T05:59:42.644Z,5.30
2023-10-25T06:02:15.381Z,3.13
2023-10-25T06:04:44.467Z,2.97
2023-10-25T06:07:12.851Z,3.60
2023-10-25T06:09:40.382Z,6.40
2023-10-25T06:12:08.368Z,4.50
2023-10-25T06:14:35.977Z,2.60
2023-10-25T06:17:03.563Z,3.70
2023-10-25T06:19:30.714Z,4.63
2023-10-25T06:21:58.221Z,4.57
2023-10-25T06:24:25.598Z,4.37
2023-10-25T06:26:52.735Z,5.07
2023-10-25T06:29:19.974Z,4.53
2023-10-25T06:31:53.495Z,3.60
2023-10-25T06:34:21.337Z,5.10
2023-10-25T06:36:49.471Z,7.57
2023-10-25T06:39:16.933Z,5.10
2023-10-25T06:41:44.805Z,5.30
2023-10-25T06:44:13.021Z,6.37
2023-10-25T06:46:40.507Z,5.13
2023-10-25T06:49:08.086Z,5.00
2023-10-25T06:51:36.321Z,5.50
2023-10-25T06:54:03.711Z,5.10
2023-10-25T06:56:31.054Z,5.07
2023-10-25T06:58:58.487Z,5.03
2023-10-25T07:01:27.385Z,5.43
2023-10-25T07:03:58.990Z,7.03
2023-10-25T07:06:26.425Z,5.00
2023-10-25T07:08:53.698Z,5.03
2023-10-25T07:11:23.532Z,5.47
2023-10-25T07:13:52.204Z,5.77
2023-10-25T07:16:19.583Z,5.60
2023-10-25T07:18:48.952Z,5.10
2023-10-25T07:21:16.352Z,6.33
2023-10-25T07:23:43.513Z,5.53
2023-10-25T07:26:10.772Z,6.30
2023-10-25T07:28:37.896Z,5.53
2023-10-25T07:31:05.175Z,6.30
2023-10-25T07:33:32.433Z,5.17
2023-10-25T07:36:00.444Z,6.03
2023-10-25T07:38:27.673Z,4.87
2023-10-25T07:40:54.850Z,5.67
2023-10-25T07:43:22.266Z,5.53
2023-10-25T07:45:49.615Z,6.47
2023-10-25T07:48:18.089Z,6.43
2023-10-25T07:50:45.336Z,8.53
2023-10-25T07:53:12.571Z,5.73
2023-10-25T07:58:24.584Z,5.40
2023-10-25T08:00:54.570Z,6.10
2023-10-25T08:03:22.031Z,5.83
2023-10-25T08:05:49.333Z,7.10
2023-10-25T08:08:17.390Z,7.10
2023-10-25T08:10:44.590Z,6.87
2023-10-25T08:13:11.769Z,5.97
2023-10-25T08:15:39.078Z,5.27
2023-10-25T08:18:06.506Z,5.57
2023-10-25T08:20:37.961Z,5.97
2023-10-25T08:23:05.327Z,5.93
2023-10-25T08:25:35.614Z,6.43
2023-10-25T08:28:02.886Z,5.73
2023-10-25T08:30:30.255Z,5.77
2023-10-25T08:32:57.459Z,6.40
2023-10-25T08:35:24.780Z,5.40
2023-10-25T08:37:52.105Z,5.37
2023-10-25T08:40:19.472Z,5.00
2023-10-25T08:42:46.859Z,4.90
2023-10-25T08:45:16.946Z,5.70
2023-10-25T08:47:44.579Z,5.57
2023-10-25T08:50:15.078Z,4.53
2023-10-25T08:52:45.642Z,5.03
2023-10-25T08:55:12.894Z,5.10
2023-10-25T08:57:40.215Z,6.03
2023-10-25T09:00:08.832Z,5.33
2023-10-25T09:02:39.997Z,4.90
2023-10-25T09:05:08.119Z,4.43
2023-10-25T09:07:39.032Z,5.13
2023-10-25T09:10:12.918Z,5.40
2023-10-25T09:12:40.084Z,4.83
2023-10-25T09:15:07.540Z,5.63
2023-10-25T09:17:35.285Z,5.80
2023-10-25T09:20:02.637Z,4.63
2023-10-25T09:22:31.253Z,4.33
2023-10-25T09:25:02.327Z,3.57
2023-10-25T09:27:30.103Z,5.17
2023-10-25T09:30:26.652Z,4.37
2023-10-25T09:32:54.616Z,5.23
2023-10-25T09:35:22.271Z,4.93
2023-10-25T09:37:50.260Z,5.50
2023-10-25T09:40:17.512Z,4.97
2023-10-25T09:42:49.893Z,6.40
2023-10-25T09:45:19.409Z,5.63
2023-10-25T09:47:50.062Z,4.43
2023-10-25T09:50:22.706Z,4.53
2023-10-25T09:52:51.399Z,5.37
2023-10-25T09:55:24.374Z,5.57
2023-10-25T09:57:54.484Z,5.83
2023-10-25T10:00:22.012Z,4.23
2023-10-25T10:02:55.262Z,4.57
2023-10-25T10:05:43.228Z,5.50
2023-10-25T10:08:13.363Z,6.00
2023-10-25T10:10:49.422Z,5.03
2023-10-25T10:13:17.162Z,3.50
2023-10-25T10:15:56.673Z,8.00
2023-10-25T10:18:23.997Z,4.90
2023-10-25T10:21:01.588Z,4.77
2023-10-25T10:23:42.211Z,5.17
2023-10-25T10:26:09.738Z,4.73
2023-10-25T10:28:42.783Z,4.10
2023-10-25T10:31:10.884Z,5.33
2023-10-25T10:33:45.149Z,4.13
2023-10-25T10:36:12.834Z,6.87
2023-10-25T10:38:58.882Z,5.07
2023-10-25T10:41:29.304Z,5.30
2023-10-25T10:43:57.632Z,4.37
2023-10-25T10:46:29.344Z,5.20
2023-10-25T10:48:57.508Z,5.00
2023-10-25T10:51:24.872Z,4.53
2023-10-25T10:53:52.027Z,4.33
2023-10-25T10:56:19.216Z,4.10
2023-10-25T10:58:46.582Z,4.63
2023-10-25T11:01:14.601Z,5.80
2023-10-25T11:03:42.397Z,4.93
2023-10-25T11:06:11.029Z,5.50
2023-10-25T11:08:38.282Z,5.33
2023-10-25T11:11:05.501Z,6.07
2023-10-25T11:13:32.677Z,4.40
2023-10-25T11:16:12.467Z,5.53
2023-10-25T11:18:39.656Z,5.40
2023-10-25T11:21:06.839Z,5.17
2023-10-25T11:23:34.116Z,5.00
2023-10-25T11:26:01.363Z,5.00
2023-10-25T11:28:28.641Z,4.97
2023-10-25T11:31:01.945Z,4.50
2023-10-25T11:33:29.237Z,5.10
2023-10-25T11:35:57.298Z,5.47
2023-10-25T11:38:26.325Z,4.37
2023-10-25T11:40:53.589Z,4.90
2023-10-25T11:43:20.846Z,5.50
2023-10-25T11:45:48.011Z,5.40
2023-10-25T11:48:15.476Z,4.80
2023-10-25T11:50:49.745Z,4.67
2023-10-25T11:53:17.555Z,5.23
2023-10-25T11:55:44.693Z,6.17
2023-10-25T11:58:18.716Z,5.10
2023-10-25T12:00:45.898Z,5.63
2023-10-25T12:03:13.267Z,4.70
2023-10-25T12:05:42.470Z,3.77
2023-10-25T12:08:09.672Z,4.63
2023-10-25T12:10:36.804Z,4.40
2023-10-25T12:13:03.948Z,4.33
2023-10-25T12:15:31.104Z,3.93
2023-10-25T12:17:58.308Z,4.77
2023-10-25T12:20:28.645Z,3.50
2023-10-25T12:22:56.652Z,3.17
2023-10-25T12:25:23.829Z,4.67
2023-10-25T12:27:50.941Z,3.97
2023-10-25T12:30:18.091Z,4.60
2023-10-25T12:32:45.492Z,4.00
2023-10-25T12:35:12.680Z,3.63
2023-10-25T12:37:40.683Z,4.28
2023-10-25T12:40:09.602Z,3.80
2023-10-25T12:42:36.750Z,4.93
2023-10-25T12:45:04.097Z,3.77
2023-10-25T12:47:31.258Z,4.23
2023-10-25T12:49:58.408Z,3.30
2023-10-25T12:52:25.554Z,4.00
2023-10-25T12:54:52.711Z,4.80
2023-10-25T12:57:19.872Z,4.17
2023-10-25T12:59:47.124Z,4.70
2023-10-25T13:02:14.320Z,4.43
2023-10-25T13:04:41.441Z,4.90
2023-10-25T13:07:08.582Z,3.07
2023-10-25T13:09:36.595Z,2.63
2023-10-25T13:12:03.889Z,3.73
2023-10-25T13:14:31.109Z,3.30
2023-10-25T13:17:12.707Z,4.33
2023-10-25T13:19:45.802Z,3.80
2023-10-25T13:22:12.962Z,5.00
2023-10-25T13:24:40.114Z,4.50
2023-10-25T13:27:07.302Z,3.07
2023-10-25T13:29:34.471Z,3.83
2023-10-25T13:32:01.624Z,4.87
2023-10-25T13:34:28.753Z,3.87
2023-10-25T13:36:56.012Z,3.20
2023-10-25T13:39:23.214Z,5.20
2023-10-25T13:41:50.362Z,3.77
2023-10-25T13:44:17.508Z,3.93
2023-10-25T13:46:45.850Z,3.57
2023-10-25T13:49:15.248Z,3.10
2023-10-25T13:51:43.884Z,3.77
2023-10-25T13:54:11.123Z,2.70
2023-10-25T13:56:38.979Z,4.13
2023-10-25T13:59:06.228Z,4.37
2023-10-25T14:01:33.386Z,4.37
2023-10-25T14:04:00.708Z,4.43
2023-10-25T14:06:27.979Z,3.60
2023-10-25T14:08:55.138Z,3.90
2023-10-25T14:11:22.324Z,3.33
2023-10-25T14:13:51.411Z,3.73
2023-10-25T14:16:18.789Z,4.10
2023-10-25T14:18:46.966Z,3.90
2023-10-25T14:21:17.338Z,3.63
2023-10-25T14:23:46.119Z,4.70
2023-10-25T14:26:13.777Z,4.57
2023-10-25T14:28:40.934Z,3.90
2023-10-25T14:31:08.150Z,3.30
2023-10-25T14:33:35.432Z,3.30
2023-10-25T14:36:02.693Z,5.47
2023-10-25T14:38:29.980Z,3.03
2023-10-25T14:40:57.187Z,4.73
2023-10-25T14:43:24.309Z,4.23
2023-10-25T14:45:51.446Z,2.60
2023-10-25T14:48:18.802Z,3.80
2023-10-25T14:50:47.244Z,3.93
2023-10-25T14:53:14.483Z,4.20
2023-10-25T14:55:41.596Z,3.30
2023-10-25T14:58:08.813Z,5.00
2023-10-25T15:00:35.940Z,3.13
2023-10-25T15:03:03.282Z,5.27
2023-10-25T15:05:36.712Z,4.77
2023-10-25T15:08:04.158Z,4.47
2023-10-25T15:10:34.787Z,4.97
2023-10-25T15:13:01.962Z,3.43
2023-10-25T15:15:29.818Z,4.37
2023-10-25T15:17:57.183Z,4.30
2023-10-25T15:20:24.640Z,4.37
2023-10-25T15:22:51.978Z,4.73
2023-10-25T15:25:23.985Z,4.03
2023-10-25T15:27:52.058Z,4.57
2023-10-25T15:30:19.479Z,4.50
2023-10-25T15:32:46.933Z,4.67
2023-10-25T15:35:14.188Z,3.63
2023-10-25T15:37:41.544Z,5.33
2023-10-25T15:40:17.473Z,4.00
2023-10-25T15:42:46.734Z,4.20
2023-10-25T15:45:14.549Z,4.00
2023-10-25T15:47:42.086Z,4.37
2023-10-25T15:50:10.283Z,3.17
2023-10-25T15:52:38.012Z,4.77
2023-10-25T15:55:06.100Z,4.40
2023-10-25T15:57:33.423Z,3.80
2023-10-25T16:00:00.678Z,4.30
2023-10-25T16:02:27.919Z,4.33
2023-10-25T16:04:55.148Z,4.03
2023-10-25T16:07:22.322Z,4.30
2023-10-25T16:09:49.640Z,5.40
2023-10-25T16:12:16.809Z,4.10
2023-10-25T16:14:44.156Z,4.30
2023-10-25T16:17:11.726Z,3.80
2023-10-25T16:19:39.032Z,4.40
2023-10-25T16:22:07.615Z,3.90
2023-10-25T16:24:34.758Z,4.40
2023-10-25T16:27:02.046Z,6.77
2023-10-25T16:29:32.539Z,3.57
2023-10-25T16:31:59.821Z,3.30
2023-10-25T16:34:27.185Z,3.33
2023-10-25T16:37:04.654Z,4.60
2023-10-25T16:39:32.706Z,4.77
2023-10-25T16:42:02.907Z,4.70
2023-10-25T16:44:30.128Z,3.90
2023-10-25T16:46:57.616Z,3.70
2023-10-25T16:49:24.811Z,3.17
2023-10-25T16:51:51.982Z,3.50
2023-10-25T16:54:19.230Z,2.13
2023-10-25T16:56:46.396Z,3.57
2023-10-25T16:59:13.564Z,4.27
2023-10-25T17:01:40.792Z,4.67
2023-10-25T17:04:08.589Z,3.30
2023-10-25T17:06:36.142Z,3.47
2023-10-25T17:09:03.428Z,4.30
2023-10-25T17:11:30.680Z,3.03
2023-10-25T17:13:57.800Z,3.67
2023-10-25T17:16:24.928Z,2.73
2023-10-25T17:18:53.042Z,2.77
2023-10-25T17:21:20.284Z,4.93
2023-10-25T17:23:47.748Z,3.43
2023-10-25T17:26:14.965Z,3.17
2023-10-25T17:28:42.158Z,3.13
2023-10-25T17:31:09.525Z,3.03
2023-10-25T17:33:36.938Z,4.40
2023-10-25T17:36:06.220Z,3.10
2023-10-25T17:38:34.186Z,3.30
2023-10-25T17:41:03.022Z,3.23
2023-10-25T17:43:30.216Z,2.73
2023-10-25T17:48:28.845Z,3.93
2023-10-25T17:50:56.482Z,3.97
2023-10-25T17:53:23.794Z,2.20
2023-10-25T17:55:50.987Z,2.73
2023-10-25T17:58:18.351Z,4.60
2023-10-25T18:00:46.086Z,3.17
2023-10-25T18:03:13.736Z,3.63
2023-10-25T18:05:41.936Z,2.97
2023-10-25T18:08:09.630Z,3.47
2023-10-25T18:10:43.453Z,2.50
2023-10-25T18:13:11.089Z,3.53
2023-10-25T18:15:38.623Z,2.70
2023-10-25T18:18:06.850Z,3.40
2023-10-25T18:20:34.598Z,2.40
2023-10-25T18:23:01.857Z,2.87
2023-10-25T18:25:29.932Z,2.30
2023-10-25T18:27:58.238Z,3.50
2023-10-25T18:31:56.105Z,2.97
2023-10-25T18:33:14.034Z,3.23
2023-10-25T18:35:41.366Z,3.43
2023-10-25T18:38:09.237Z,3.10
2023-10-25T18:40:36.516Z,3.53
2023-10-25T18:43:04.187Z,2.70
2023-10-25T18:45:31.409Z,2.97
2023-10-25T18:47:58.737Z,2.17
2023-10-25T18:50:25.976Z,3.30
2023-10-25T18:52:53.109Z,3.70
2023-10-25T18:55:20.631Z,4.10
2023-10-25T18:57:47.845Z,4.20
2023-10-25T19:00:15.286Z,3.27
2023-10-25T19:02:42.597Z,4.00
2023-10-25T19:06:23.654Z,4.33
2023-10-25T19:08:24.522Z,3.17
2023-10-25T19:10:45.346Z,3.77
2023-10-25T19:13:12.762Z,4.30
2023-10-25T19:15:39.995Z,4.10
2023-10-25T19:18:07.260Z,3.13
2023-10-25T19:20:34.448Z,3.17
2023-10-25T19:23:03.557Z,3.57
2023-10-25T19:25:30.762Z,2.90
2023-10-25T19:27:58.053Z,3.17
2023-10-25T19:30:25.380Z,2.73
2023-10-25T19:32:52.613Z,3.30
2023-10-25T19:35:19.846Z,2.83
2023-10-25T19:37:47.046Z,3.63
2023-10-25T19:40:14.258Z,3.37
2023-10-25T19:42:42.464Z,3.20
2023-10-25T19:45:10.223Z,4.03
2023-10-25T19:47:37.578Z,3.30
2023-10-25T19:50:05.039Z,2.63
2023-10-25T19:52:33.339Z,2.40
2023-10-25T19:55:00.622Z,2.90
2023-10-25T19:57:27.741Z,3.50
2023-10-25T19:59:55.753Z,2.70
2023-10-25T20:02:23.021Z,3.07
2023-10-25T20:04:50.268Z,3.33
2023-10-25T20:07:17.416Z,3.43
2023-10-25T20:09:44.568Z,2.70
2023-10-25T20:12:11.740Z,4.80
2023-10-25T20:14:38.949Z,3.20
2023-10-25T20:17:06.112Z,2.37
2023-10-25T20:19:33.313Z,3.23
2023-10-25T20:22:00.482Z,3.47
2023-10-25T20:24:27.609Z,3.73
2023-10-25T20:26:56.478Z,3.83
2023-10-25T20:29:23.709Z,3.13
2023-10-25T20:31:50.890Z,4.87
2023-10-25T20:34:18.031Z,2.97
2023-10-25T20:36:45.217Z,3.80
2023-10-25T20:39:12.359Z,3.07
2023-10-25T20:41:39.507Z,3.13
2023-10-25T20:44:06.767Z,4.47
2023-10-25T20:46:33.991Z,3.20
2023-10-25T20:49:01.204Z,3.17
2023-10-25T20:51:28.360Z,4.77
2023-10-25T20:53:55.521Z,2.73
2023-10-25T20:56:22.754Z,4.23
2023-10-25T20:58:49.910Z,3.37
2023-10-25T21:01:17.073Z,3.10
2023-10-25T21:03:45.324Z,2.67
2023-10-25T21:06:13.796Z,4.43
2023-10-25T21:08:41.176Z,3.57
2023-10-25T21:11:09.796Z,3.20
2023-10-25T21:13:38.301Z,3.50
2023-10-25T21:16:11.609Z,2.87
2023-10-25T21:18:38.752Z,3.83
2023-10-25T21:21:06.165Z,4.87
2023-10-25T21:23:33.300Z,2.67
2023-10-25T21:26:07.147Z,4.07
2023-10-25T21:28:34.349Z,3.03
2023-10-25T21:31:05.822Z,1.97
2023-10-25T21:33:32.979Z,2.50
2023-10-25T21:36:10.137Z,1.47
2023-10-25T21:38:37.507Z,2.40
2023-10-25T21:41:05.252Z,3.27
2023-10-25T21:43:33.341Z,1.93
2023-10-25T21:46:00.515Z,2.80
2023-10-25T21:48:27.937Z,2.33
2023-10-25T21:50:59.000Z,3.03
2023-10-25T21:53:26.421Z,2.30
2023-10-25T21:56:21.657Z,3.30
2023-10-25T21:59:44.496Z,1.87
2023-10-25T22:01:29.293Z,3.17
2023-10-25T22:03:56.687Z,2.50
2023-10-25T22:06:24.004Z,1.80
2023-10-25T22:08:51.422Z,2.60
2023-10-25T22:11:18.747Z,2.10
2023-10-25T22:13:45.869Z,1.83
2023-10-25T22:16:13.060Z,2.07
2023-10-25T22:18:40.285Z,2.20
2023-10-25T22:21:07.649Z,3.00
2023-10-25T22:23:34.811Z,2.63
2023-10-25T22:26:01.991Z,2.90
2023-10-25T22:28:29.415Z,2.20
2023-10-25T22:30:56.566Z,2.27
2023-10-25T22:33:23.814Z,3.10
2023-10-25T22:35:51.092Z,1.77
2023-10-25T22:38:18.266Z,2.33
2023-10-25T22:40:45.435Z,2.30
2023-10-25T22:43:12.639Z,2.00
2023-10-25T22:45:39.760Z,3.13
2023-10-25T22:48:07.065Z,2.93
2023-10-25T22:50:34.370Z,2.00
2023-10-25T22:53:01.493Z,3.00
2023-10-25T22:55:29.082Z,2.80
2023-10-25T22:57:56.307Z,3.30
2023-10-25T23:00:23.643Z,2.87
2023-10-25T23:02:50.840Z,2.47
2023-10-25T23:05:18.112Z,2.90
2023-10-25T23:07:45.402Z,2.57
2023-10-25T23:10:12.555Z,2.97
2023-10-25T23:12:39.740Z,3.23
2023-10-25T23:15:07.192Z,2.90
2023-10-25T23:17:34.379Z,3.43
2023-10-25T23:20:01.558Z,3.17
2023-10-25T23:22:28.679Z,3.20
2023-10-25T23:24:55.819Z,2.33
2023-10-25T23:27:23.030Z,3.03
2023-10-25T23:29:51.413Z,2.67
2023-10-25T23:32:18.629Z,1.80
2023-10-25T23:34:46.020Z,3.57
2023-10-25T23:37:13.481Z,3.13
2023-10-25T23:39:40.596Z,2.17
2023-10-25T23:42:07.906Z,2.67
2023-10-25T23:44:35.152Z,3.43
2023-10-25T23:47:02.365Z,2.60
2023-10-25T23:49:29.735Z,2.40
2023-10-25T23:51:56.862Z,2.17
2023-10-25T23:54:51.082Z,2.70
2023-10-25T23:57:11.250Z,1.80
2023-10-25T23:59:38.513Z,2.13
